x

Sentry Shoal (46131) Wave Buoy

2:00am - Sun 14th Feb 2016 All times are PST. -8 hours from GMT.

  • Sig Wave height 1.3ft
  • Peak Period 4s
  • Wind
    11mph, 13mph gusts
  • Sea Temp 47°f
  • 空気 Temp 46°f
  • Sea Pressure 1018.6mb
  • Sentry Shoal
  • Sentry Shoal

More Historic Weather Station data

Upgrade to MSW Pro to gain access to the past 30 days of data for over 8000 Wavebouys and Weather Stations around the globe.

Join Pro

Comparision Forecast

View Surf forecast
   
Sun 02/14 2:00am 1.3ft 4s 11 13 mph 1018.6mb 47f 46f
1:00am 2ft 4s 4 11 mph 1018.6mb 47f 45f
12:00am 2.5ft 4s 9 11 mph 1018mb 47f 46f
Sat 02/13 11:00pm 2.5ft 4s 11 13 mph 1017.1mb 47f 46f
10:00pm 3ft 5s 7 9 mph 1016.4mb 47f 45f
9:00pm 4ft 5s 16 20 mph 1015.7mb 47f 46f
8:00pm 4.5ft 6s 22 29 mph 1014.9mb 47f 47f
7:00pm 5ft 5s 25 29 mph 1014.4mb 47f 47f
6:00pm 5.5ft 6s 27 31 mph 1013.4mb 47f 47f
5:00pm 6ft 5s  -  mph 1012.9mb 47f 46f
4:00pm 6ft 6s 29 38 mph 1013.6mb 47f 46f
3:00pm 5.5ft 5s 34 43 mph 1013.4mb 47f 46f
2:00pm 6ft 5s 36 43 mph 1014mb 47f 46f
1:00pm 5ft 4s 29 38 mph 1015.6mb 47f 46f
12:00pm 4.5ft 5s 27 31 mph 1017.1mb 47f 46f
11:00am 4ft 4s 22 27 mph 1018.2mb 47f 46f
10:00am 3.5ft 4s 22 27 mph 1018.9mb 47f 47f
9:00am 3.5ft 4s 22 29 mph 1019mb 47f 47f
8:00am 2.5ft 4s 22 27 mph 1019.1mb 47f 47f
7:00am 1.6ft 3s 18 20 mph 1019.1mb 46f 46f
6:00am 1.3ft 4s 13 18 mph 1019.5mb 46f 46f
5:00am 2ft 4s 13 16 mph 1019.7mb 46f 46f
4:00am 1.6ft 3s 16 18 mph 1019.3mb 46f 46f
3:00am 1.6ft 4s 11 16 mph 1019.7mb 46f 46f
2:00am 1.6ft 4s 11
mph
1018.8mb 46f 46f
1:00am 2ft 4s 11 16 mph 1018.4mb 46f 47f
12:00am 2ft 4s 13 16 mph 1018.2mb 47f 48f
Fri 02/12 11:00pm 2.5ft 4s 13 18 mph 1017.4mb 47f 48f
10:00pm 2.5ft 4s 13 16 mph 1017.1mb 47f 49f
9:00pm 2ft 4s 16 18 mph 1017mb 47f 49f
8:00pm 2.5ft 4s 13 16 mph 1016.7mb 47f 49f
7:00pm 2.5ft 4s 16 20 mph 1016.3mb 47f 49f
6:00pm 2.5ft 4s 18 22 mph 1016mb 47f 49f
5:00pm 2.5ft 3s 18 22 mph 1015.4mb 47f 50f
4:00pm 2.5ft 3s 20 25 mph 1015.2mb 47f 51f
3:00pm 2.5ft 4s 18 25 mph 1015mb 47f 53f
2:00pm 2.5ft 4s 20 25 mph 1014.6mb 47f 53f
1:00pm 2.5ft 4s 7 16 mph 1015mb 47f 51f
12:00pm 2.5ft 4s 7 9 mph 1015mb 47f 49f
11:00am 3.5ft 5s 2 7 mph 1015.3mb 47f 49f
10:00am 3.5ft 5s 7 9 mph 1014.7mb 47f 48f
9:00am 3ft 5s 9 13 mph 1014.6mb 47f 48f
8:00am 3.5ft 4s 9 13 mph 1014.3mb 47f 48f
7:00am 2.5ft 4s 18 22 mph 1014.2mb 47f 48f
6:00am 1ft 4s 16 18 mph 1014.5mb 47f 47f
5:00am 0.3ft 2s 9
mph
1014.9mb 46f 47f
4:00am 0.3ft 2s 9 11 mph 1015.4mb 46f 46f
3:00am 0.3ft 2s 9
mph
1016mb 46f 46f
2:00am 0.7ft 2s 9 11 mph 1016.5mb 46f 46f
1:00am 0.7ft 2s 9 11 mph 1016.7mb 46f 46f
12:00am 0.3ft 2s 9 11 mph 1016.8mb 46f 46f
Thu 02/11 11:00pm 0.3ft 2s 9
mph
1017.4mb 46f 46f
10:00pm 0.3ft 3s 9 11 mph 1017.9mb 46f 46f
9:00pm 0.3ft 5s 9 11 mph 1018.2mb 46f 46f
8:00pm 0.3ft 5s 7 9 mph 1018.6mb 46f 46f
7:00pm 0.3ft 5s 7 9 mph 1019.1mb 46f 46f
6:00pm 0.3ft 5s 9 11 mph 1019.2mb 46f 46f
5:00pm 0.3ft 5s 7 9 mph 1019.4mb 46f 46f
4:00pm 0.3ft 2s 4
mph
1019.5mb 47f 46f
3:00pm 0.7ft 2s 2
mph
1019.5mb 47f 46f
2:00pm 0.3ft 2s 9 11 mph 1019.9mb 47f 46f
1:00pm 0.3ft 3s 9 11 mph 1021mb 47f 46f
12:00pm 0.3ft 5s 7 9 mph 1021.8mb 46f 45f
11:00am 0.3ft 5s 4
mph
1022.1mb 46f 45f
10:00am 0.3ft 5s 4
mph
1022mb 47f 45f
9:00am 0.3ft 5s 7
mph
1022.6mb 46f 45f
8:00am 0.3ft 5s 4 7 mph 1023mb 46f 44f
7:00am 0.3ft 3s 4
mph
1023.3mb 46f 44f
6:00am 0.3ft 5s 2 4 mph 1023.7mb 46f 44f
5:00am 0.3ft 5s 2 4 mph 1024.7mb 46f 44f
4:00am 0.3ft 5s  -  2 mph 1025.1mb 46f 44f
3:00am 0.3ft 2s 2 4 mph 1025.8mb 46f 44f
2:00am 0.3ft 3s 7
mph
1026.2mb 46f 45f
1:00am 0.7ft 3s 9
mph
1026.1mb 47f 44f
12:00am 0.7ft 3s 4 7 mph 1025.8mb 47f 46f
Wed 02/10 11:00pm 1.3ft 4s 4 7 mph 1025.7mb 47f 46f
10:00pm 1.6ft 4s 4 7 mph 1025mb 47f 47f
9:00pm 2ft 5s 11 13 mph 1023.9mb 47f 49f
8:00pm 2.5ft 5s 4 9 mph 1023.9mb 47f 49f
7:00pm 3.5ft 5s 11 13 mph 1022.9mb 47f 48f
6:00pm 4.5ft 6s 16 20 mph 1022mb 47f 49f
5:00pm 5ft 6s 16 20 mph 1021.1mb 47f 49f
4:00pm 4.5ft 5s 20 22 mph 1020.2mb 47f 49f
3:00pm 4ft 4s 25 34 mph 1018.6mb 47f 49f
2:00pm 2.5ft 4s 18 25 mph 1018.8mb 47f 48f
1:00pm 2ft 3s 18 22 mph 1018.4mb 47f 48f
12:00pm 2ft 3s 16 18 mph 1018.6mb 47f 48f